sensor_id;sensor_type;location;lat;lon;timestamp;pressure;altitude;pressure_sealevel;temperature;humidity
71938;BME280;59810;48.800;9.086;2023-06-22T00:00:55;97671.38;;;19.65;94.54
71938;BME280;59810;48.800;9.086;2023-06-22T00:03:23;97671.47;;;19.60;95.02
71938;BME280;59810;48.800;9.086;2023-06-22T00:05:50;97672.28;;;19.60;94.01
71938;BME280;59810;48.800;9.086;2023-06-22T00:08:16;97679.09;;;19.63;93.46
71938;BME280;59810;48.800;9.086;2023-06-22T00:10:42;97673.72;;;19.57;94.84
71938;BME280;59810;48.800;9.086;2023-06-22T00:13:11;97671.47;;;19.60;93.81
71938;BME280;59810;48.800;9.086;2023-06-22T00:15:38;97677.25;;;19.44;95.63
71938;BME280;59810;48.800;9.086;2023-06-22T00:18:05;97678.16;;;19.40;95.75
71938;BME280;59810;48.800;9.086;2023-06-22T00:20:36;97685.66;;;19.48;95.39
71938;BME280;59810;48.800;9.086;2023-06-22T00:23:03;97690.78;;;19.54;94.88
71938;BME280;59810;48.800;9.086;2023-06-22T00:25:39;97684.38;;;19.59;93.82
71938;BME280;59810;48.800;9.086;2023-06-22T00:28:05;97675.03;;;19.60;94.04
71938;BME280;59810;48.800;9.086;2023-06-22T00:30:32;97673.72;;;19.57;94.58
71938;BME280;59810;48.800;9.086;2023-06-22T00:32:57;97681.75;;;19.54;94.73
71938;BME280;59810;48.800;9.086;2023-06-22T00:35:23;97672.75;;;19.48;95.68
71938;BME280;59810;48.800;9.086;2023-06-22T00:37:56;97664.16;;;19.41;96.96
71938;BME280;59810;48.800;9.086;2023-06-22T00:40:30;97671.88;;;19.39;96.86
71938;BME280;59810;48.800;9.086;2023-06-22T00:42:56;97659.53;;;19.28;97.58
71938;BME280;59810;48.800;9.086;2023-06-22T00:45:23;97658.91;;;19.31;97.05
71938;BME280;59810;48.800;9.086;2023-06-22T00:47:53;97671.09;;;19.25;96.80
71938;BME280;59810;48.800;9.086;2023-06-22T00:50:23;97685.47;;;19.31;96.98
71938;BME280;59810;48.800;9.086;2023-06-22T00:52:53;97702.81;;;19.40;96.67
71938;BME280;59810;48.800;9.086;2023-06-22T00:55:21;97692.25;;;19.47;95.36
71938;BME280;59810;48.800;9.086;2023-06-22T00:57:47;97682.22;;;19.42;96.83
71938;BME280;59810;48.800;9.086;2023-06-22T01:00:16;97723.78;;;19.44;95.45
71938;BME280;59810;48.800;9.086;2023-06-22T01:02:43;97769.13;;;19.50;94.94
71938;BME280;59810;48.800;9.086;2023-06-22T01:05:14;97754.63;;;19.50;94.67
71938;BME280;59810;48.800;9.086;2023-06-22T01:08:04;97721.16;;;19.39;96.78
71938;BME280;59810;48.800;9.086;2023-06-22T01:13:05;97728.03;;;19.50;94.90
71938;BME280;59810;48.800;9.086;2023-06-22T01:15:49;97708.97;;;19.45;96.00
71938;BME280;59810;48.800;9.086;2023-06-22T01:18:17;97705.97;;;19.33;96.86
71938;BME280;59810;48.800;9.086;2023-06-22T01:20:44;97705.75;;;19.30;97.75
71938;BME280;59810;48.800;9.086;2023-06-22T01:23:28;97695.91;;;19.28;96.71
71938;BME280;59810;48.800;9.086;2023-06-22T01:28:49;97694.59;;;19.12;98.74
71938;BME280;59810;48.800;9.086;2023-06-22T01:31:28;97696.50;;;19.12;98.77
71938;BME280;59810;48.800;9.086;2023-06-22T01:34:05;97698.84;;;19.05;100.00
71938;BME280;59810;48.800;9.086;2023-06-22T01:36:33;97700.66;;;18.95;100.00
71938;BME280;59810;48.800;9.086;2023-06-22T01:39:00;97702.69;;;18.90;100.00
71938;BME280;59810;48.800;9.086;2023-06-22T01:41:28;97700.56;;;18.87;100.00
71938;BME280;59810;48.800;9.086;2023-06-22T01:43:55;97702.91;;;18.93;100.00
71938;BME280;59810;48.800;9.086;2023-06-22T01:46:21;97697.13;;;18.95;100.00
71938;BME280;59810;48.800;9.086;2023-06-22T01:48:47;97698.22;;;18.94;100.00
71938;BME280;59810;48.800;9.086;2023-06-22T01:51:13;97706.66;;;18.98;99.79
71938;BME280;59810;48.800;9.086;2023-06-22T01:53:40;97708.78;;;18.87;100.00
71938;BME280;59810;48.800;9.086;2023-06-22T01:56:06;97711.22;;;18.88;100.00
71938;BME280;59810;48.800;9.086;2023-06-22T01:58:32;97706.44;;;18.94;100.00
71938;BME280;59810;48.800;9.086;2023-06-22T02:01:10;97710.69;;;18.86;100.00
71938;BME280;59810;48.800;9.086;2023-06-22T02:03:41;97715.56;;;18.89;100.00
71938;BME280;59810;48.800;9.086;2023-06-22T02:06:11;97719.53;;;18.97;100.00
71938;BME280;59810;48.800;9.086;2023-06-22T02:08:48;97709.38;;;18.98;100.00
71938;BME280;59810;48.800;9.086;2023-06-22T02:11:16;97711.28;;;18.83;100.00
71938;BME280;59810;48.800;9.086;2023-06-22T02:13:44;97716.69;;;18.88;100.00
71938;BME280;59810;48.800;9.086;2023-06-22T02:16:13;97715.47;;;18.94;100.00
71938;BME280;59810;48.800;9.086;2023-06-22T02:18:46;97710.00;;;18.94;100.00
71938;BME280;59810;48.800;9.086;2023-06-22T02:21:11;97713.13;;;18.88;100.00
71938;BME280;59810;48.800;9.086;2023-06-22T02:23:36;97711.72;;;18.90;100.00
71938;BME280;59810;48.800;9.086;2023-06-22T02:26:03;97711.22;;;18.88;100.00
71938;BME280;59810;48.800;9.086;2023-06-22T02:28:28;97705.38;;;18.76;100.00
71938;BME280;59810;48.800;9.086;2023-06-22T02:30:54;97694.94;;;18.64;100.00
71938;BME280;59810;48.800;9.086;2023-06-22T02:33:21;97690.66;;;18.58;100.00
71938;BME280;59810;48.800;9.086;2023-06-22T02:35:47;97684.66;;;18.56;100.00
71938;BME280;59810;48.800;9.086;2023-06-22T02:38:14;97678.69;;;18.54;100.00
71938;BME280;59810;48.800;9.086;2023-06-22T02:40:43;97677.44;;;18.47;100.00
71938;BME280;59810;48.800;9.086;2023-06-22T02:43:11;97680.47;;;18.45;100.00
71938;BME280;59810;48.800;9.086;2023-06-22T02:45:36;97679.75;;;18.40;100.00
71938;BME280;59810;48.800;9.086;2023-06-22T02:48:01;97677.00;;;18.40;100.00
71938;BME280;59810;48.800;9.086;2023-06-22T02:50:27;97671.50;;;18.26;100.00
71938;BME280;59810;48.800;9.086;2023-06-22T02:52:52;97679.41;;;18.27;100.00
71938;BME280;59810;48.800;9.086;2023-06-22T02:55:18;97680.72;;;18.30;100.00
71938;BME280;59810;48.800;9.086;2023-06-22T02:57:43;97681.44;;;18.35;100.00
71938;BME280;59810;48.800;9.086;2023-06-22T03:00:13;97676.41;;;18.43;100.00
71938;BME280;59810;48.800;9.086;2023-06-22T03:02:46;97670.34;;;18.46;100.00
71938;BME280;59810;48.800;9.086;2023-06-22T03:05:13;97673.16;;;18.41;100.00
71938;BME280;59810;48.800;9.086;2023-06-22T03:07:42;97677.22;;;18.43;100.00
71938;BME280;59810;48.800;9.086;2023-06-22T03:10:14;97674.88;;;18.37;100.00
71938;BME280;59810;48.800;9.086;2023-06-22T03:12:41;97665.06;;;18.35;100.00
71938;BME280;59810;48.800;9.086;2023-06-22T03:15:08;97660.41;;;18.36;100.00
71938;BME280;59810;48.800;9.086;2023-06-22T03:17:34;97666.06;;;18.40;100.00
71938;BME280;59810;48.800;9.086;2023-06-22T03:20:00;97672.66;;;18.39;100.00
71938;BME280;59810;48.800;9.086;2023-06-22T03:22:26;97670.94;;;18.43;100.00
71938;BME280;59810;48.800;9.086;2023-06-22T03:24:51;97674.19;;;18.45;100.00
71938;BME280;59810;48.800;9.086;2023-06-22T03:27:19;97672.34;;;18.40;100.00
71938;BME280;59810;48.800;9.086;2023-06-22T03:29:44;97660.31;;;18.41;100.00
71938;BME280;59810;48.800;9.086;2023-06-22T03:32:10;97663.81;;;18.28;100.00
71938;BME280;59810;48.800;9.086;2023-06-22T03:34:35;97654.59;;;18.24;100.00
71938;BME280;59810;48.800;9.086;2023-06-22T03:37:03;97661.47;;;18.21;100.00
71938;BME280;59810;48.800;9.086;2023-06-22T03:39:28;97656.66;;;18.13;100.00
71938;BME280;59810;48.800;9.086;2023-06-22T03:41:54;97658.06;;;18.11;100.00
71938;BME280;59810;48.800;9.086;2023-06-22T03:44:21;97659.06;;;18.01;100.00
71938;BME280;59810;48.800;9.086;2023-06-22T03:46:47;97661.06;;;17.95;100.00
71938;BME280;59810;48.800;9.086;2023-06-22T03:49:15;97658.03;;;17.97;100.00
71938;BME280;59810;48.800;9.086;2023-06-22T03:51:45;97642.44;;;17.97;100.00
71938;BME280;59810;48.800;9.086;2023-06-22T03:54:11;97647.41;;;17.95;100.00
71938;BME280;59810;48.800;9.086;2023-06-22T03:56:39;97644.28;;;18.02;100.00
71938;BME280;59810;48.800;9.086;2023-06-22T03:59:06;97651.28;;;18.08;100.00
71938;BME280;59810;48.800;9.086;2023-06-22T04:01:32;97651.19;;;18.13;100.00
71938;BME280;59810;48.800;9.086;2023-06-22T04:03:57;97644.84;;;18.18;100.00
71938;BME280;59810;48.800;9.086;2023-06-22T04:06:22;97638.25;;;18.19;100.00
71938;BME280;59810;48.800;9.086;2023-06-22T04:08:48;97642.91;;;18.18;100.00
71938;BME280;59810;48.800;9.086;2023-06-22T04:11:17;97646.44;;;18.19;100.00
71938;BME280;59810;48.800;9.086;2023-06-22T04:13:43;97642.91;;;18.18;100.00
71938;BME280;59810;48.800;9.086;2023-06-22T04:16:11;97638.56;;;18.17;100.00
71938;BME280;59810;48.800;9.086;2023-06-22T04:18:36;97640.94;;;18.24;100.00
71938;BME280;59810;48.800;9.086;2023-06-22T04:21:02;97641.13;;;18.27;100.00
71938;BME280;59810;48.800;9.086;2023-06-22T04:23:28;97642.88;;;18.37;100.00
71938;BME280;59810;48.800;9.086;2023-06-22T04:25:53;97646.03;;;18.44;100.00
71938;BME280;59810;48.800;9.086;2023-06-22T04:28:21;97636.91;;;18.49;100.00
71938;BME280;59810;48.800;9.086;2023-06-22T04:30:46;97634.69;;;18.51;100.00
71938;BME280;59810;48.800;9.086;2023-06-22T04:33:15;97630.53;;;18.53;100.00
71938;BME280;59810;48.800;9.086;2023-06-22T04:35:41;97630.78;;;18.57;100.00
71938;BME280;59810;48.800;9.086;2023-06-22T04:38:12;97632.91;;;18.60;100.00
71938;BME280;59810;48.800;9.086;2023-06-22T04:40:39;97623.81;;;18.64;100.00
71938;BME280;59810;48.800;9.086;2023-06-22T04:43:07;97627.88;;;18.67;100.00
71938;BME280;59810;48.800;9.086;2023-06-22T04:45:33;97622.22;;;18.77;100.00
71938;BME280;59810;48.800;9.086;2023-06-22T04:47:58;97622.91;;;18.83;100.00
71938;BME280;59810;48.800;9.086;2023-06-22T04:50:24;97623.66;;;18.88;100.00
71938;BME280;59810;48.800;9.086;2023-06-22T04:52:50;97610.38;;;18.95;100.00
71938;BME280;59810;48.800;9.086;2023-06-22T04:55:20;97610.78;;;19.03;100.00
71938;BME280;59810;48.800;9.086;2023-06-22T04:57:46;97616.13;;;19.08;100.00
71938;BME280;59810;48.800;9.086;2023-06-22T05:00:18;97610.53;;;19.13;100.00
71938;BME280;59810;48.800;9.086;2023-06-22T05:02:47;97603.47;;;19.25;100.00
71938;BME280;59810;48.800;9.086;2023-06-22T05:05:13;97610.44;;;19.32;99.71
71938;BME280;59810;48.800;9.086;2023-06-22T05:07:43;97614.88;;;19.41;98.46
71938;BME280;59810;48.800;9.086;2023-06-22T05:10:12;97613.81;;;19.51;97.45
71938;BME280;59810;48.800;9.086;2023-06-22T05:12:38;97612.03;;;19.60;96.79
71938;BME280;59810;48.800;9.086;2023-06-22T05:15:05;97610.28;;;19.64;97.02
71938;BME280;59810;48.800;9.086;2023-06-22T05:17:31;97610.34;;;19.73;96.76
71938;BME280;59810;48.800;9.086;2023-06-22T05:19:57;97611.75;;;19.84;96.24
71938;BME280;59810;48.800;9.086;2023-06-22T05:22:22;97605.03;;;19.90;94.73
71938;BME280;59810;48.800;9.086;2023-06-22T05:24:47;97597.19;;;19.97;94.78
71938;BME280;59810;48.800;9.086;2023-06-22T05:27:13;97591.94;;;20.09;93.82
71938;BME280;59810;48.800;9.086;2023-06-22T05:29:39;97590.25;;;20.22;92.14
71938;BME280;59810;48.800;9.086;2023-06-22T05:32:05;97591.91;;;20.32;91.56
71938;BME280;59810;48.800;9.086;2023-06-22T05:34:30;97599.28;;;20.45;90.64
71938;BME280;59810;48.800;9.086;2023-06-22T05:36:56;97597.91;;;20.56;89.87
71938;BME280;59810;48.800;9.086;2023-06-22T05:39:24;97586.16;;;20.64;89.91
71938;BME280;59810;48.800;9.086;2023-06-22T05:41:49;97593.09;;;20.70;89.14
71938;BME280;59810;48.800;9.086;2023-06-22T05:44:17;97594.59;;;20.76;87.67
71938;BME280;59810;48.800;9.086;2023-06-22T05:46:45;97595.56;;;20.80;87.18
71938;BME280;59810;48.800;9.086;2023-06-22T05:49:12;97597.69;;;20.84;86.70
71938;BME280;59810;48.800;9.086;2023-06-22T05:51:38;97593.69;;;20.90;86.87
71938;BME280;59810;48.800;9.086;2023-06-22T05:54:05;97593.53;;;20.95;86.23
71938;BME280;59810;48.800;9.086;2023-06-22T05:56:31;97597.91;;;20.96;85.52
71938;BME280;59810;48.800;9.086;2023-06-22T05:58:56;97587.22;;;20.94;85.04
71938;BME280;59810;48.800;9.086;2023-06-22T06:01:22;97597.25;;;20.99;85.34
71938;BME280;59810;48.800;9.086;2023-06-22T06:03:47;97592.75;;;21.03;85.10
71938;BME280;59810;48.800;9.086;2023-06-22T06:06:15;97594.19;;;21.00;84.08
71938;BME280;59810;48.800;9.086;2023-06-22T06:08:41;97594.84;;;21.06;84.55
71938;BME280;59810;48.800;9.086;2023-06-22T06:11:07;97589.19;;;21.11;84.55
71938;BME280;59810;48.800;9.086;2023-06-22T06:13:32;97583.72;;;21.11;84.11
71938;BME280;59810;48.800;9.086;2023-06-22T06:16:00;97587.47;;;21.15;83.65
71938;BME280;59810;48.800;9.086;2023-06-22T06:18:26;97579.56;;;21.22;83.87
71938;BME280;59810;48.800;9.086;2023-06-22T06:20:51;97583.00;;;21.28;83.13
71938;BME280;59810;48.800;9.086;2023-06-22T06:23:16;97577.00;;;21.34;81.80
71938;BME280;59810;48.800;9.086;2023-06-22T06:25:48;97577.19;;;21.38;82.77
71938;BME280;59810;48.800;9.086;2023-06-22T06:28:16;97584.63;;;21.37;82.44
71938;BME280;59810;48.800;9.086;2023-06-22T06:30:41;97586.38;;;21.42;82.44
71938;BME280;59810;48.800;9.086;2023-06-22T06:33:07;97583.81;;;21.46;82.05
71938;BME280;59810;48.800;9.086;2023-06-22T06:35:34;97573.34;;;21.48;81.72
71938;BME280;59810;48.800;9.086;2023-06-22T06:37:59;97580.75;;;21.56;82.40
71938;BME280;59810;48.800;9.086;2023-06-22T06:40:25;97583.84;;;21.63;82.21
71938;BME280;59810;48.800;9.086;2023-06-22T06:42:50;97588.69;;;21.66;80.89
71938;BME280;59810;48.800;9.086;2023-06-22T06:45:18;97590.13;;;21.72;80.26
71938;BME280;59810;48.800;9.086;2023-06-22T06:47:43;97599.34;;;21.76;78.67
71938;BME280;59810;48.800;9.086;2023-06-22T06:50:09;97593.88;;;21.85;80.15
71938;BME280;59810;48.800;9.086;2023-06-22T06:52:34;97601.63;;;21.91;80.08
71938;BME280;59810;48.800;9.086;2023-06-22T06:55:02;97590.31;;;21.93;79.30
71938;BME280;59810;48.800;9.086;2023-06-22T06:57:30;97593.69;;;21.98;77.75
71938;BME280;59810;48.800;9.086;2023-06-22T06:59:56;97590.81;;;22.03;77.97
71938;BME280;59810;48.800;9.086;2023-06-22T07:02:22;97583.50;;;22.08;78.13
71938;BME280;59810;48.800;9.086;2023-06-22T07:04:51;97586.13;;;22.13;76.96
71938;BME280;59810;48.800;9.086;2023-06-22T07:07:16;97576.22;;;22.20;77.65
71938;BME280;59810;48.800;9.086;2023-06-22T07:09:41;97579.75;;;22.29;77.14
71938;BME280;59810;48.800;9.086;2023-06-22T07:12:07;97566.59;;;22.44;76.98
71938;BME280;59810;48.800;9.086;2023-06-22T07:14:32;97566.31;;;22.45;76.27
71938;BME280;59810;48.800;9.086;2023-06-22T07:16:58;97563.56;;;22.45;75.74
71938;BME280;59810;48.800;9.086;2023-06-22T07:19:25;97567.41;;;22.53;75.86
71938;BME280;59810;48.800;9.086;2023-06-22T07:21:52;97552.97;;;22.56;75.10
71938;BME280;59810;48.800;9.086;2023-06-22T07:24:17;97550.00;;;22.70;76.49
71938;BME280;59810;48.800;9.086;2023-06-22T07:26:45;97551.44;;;22.76;74.89
71938;BME280;59810;48.800;9.086;2023-06-22T07:29:11;97544.94;;;22.80;73.82
71938;BME280;59810;48.800;9.086;2023-06-22T07:31:37;97534.13;;;22.84;74.46
71938;BME280;59810;48.800;9.086;2023-06-22T07:34:02;97536.19;;;22.87;74.18
71938;BME280;59810;48.800;9.086;2023-06-22T07:36:29;97535.19;;;22.91;74.69
71938;BME280;59810;48.800;9.086;2023-06-22T07:38:55;97522.19;;;23.01;73.39
71938;BME280;59810;48.800;9.086;2023-06-22T07:41:20;97522.97;;;23.01;72.56
71938;BME280;59810;48.800;9.086;2023-06-22T07:43:46;97523.94;;;23.05;72.87
71938;BME280;59810;48.800;9.086;2023-06-22T07:46:11;97523.25;;;23.08;72.37
71938;BME280;59810;48.800;9.086;2023-06-22T07:48:37;97510.13;;;23.14;72.12
71938;BME280;59810;48.800;9.086;2023-06-22T07:51:03;97507.97;;;23.19;70.88
71938;BME280;59810;48.800;9.086;2023-06-22T07:53:31;97515.34;;;23.27;71.47
71938;BME280;59810;48.800;9.086;2023-06-22T07:55:56;97509.44;;;23.38;70.50
71938;BME280;59810;48.800;9.086;2023-06-22T07:58:21;97504.00;;;23.50;70.20
71938;BME280;59810;48.800;9.086;2023-06-22T08:00:47;97516.31;;;23.52;70.63
71938;BME280;59810;48.800;9.086;2023-06-22T08:03:14;97529.44;;;23.55;69.97
71938;BME280;59810;48.800;9.086;2023-06-22T08:05:39;97539.47;;;23.60;69.85
71938;BME280;59810;48.800;9.086;2023-06-22T08:08:04;97546.84;;;23.68;68.51
71938;BME280;59810;48.800;9.086;2023-06-22T08:10:30;97548.75;;;23.76;69.45
71938;BME280;59810;48.800;9.086;2023-06-22T08:12:55;97557.72;;;23.85;69.40
71938;BME280;59810;48.800;9.086;2023-06-22T08:15:20;97560.53;;;23.98;67.64
71938;BME280;59810;48.800;9.086;2023-06-22T08:17:47;97554.75;;;24.11;66.74
71938;BME280;59810;48.800;9.086;2023-06-22T08:20:12;97564.66;;;24.25;65.83
71938;BME280;59810;48.800;9.086;2023-06-22T08:22:39;97567.34;;;24.33;64.60
71938;BME280;59810;48.800;9.086;2023-06-22T08:25:08;97569.00;;;24.46;64.74
71938;BME280;59810;48.800;9.086;2023-06-22T08:27:34;97569.25;;;24.54;64.05
71938;BME280;59810;48.800;9.086;2023-06-22T08:30:00;97581.09;;;24.66;64.03
71938;BME280;59810;48.800;9.086;2023-06-22T08:32:27;97574.47;;;24.79;63.41
71938;BME280;59810;48.800;9.086;2023-06-22T08:34:56;97574.81;;;24.90;63.46
71938;BME280;59810;48.800;9.086;2023-06-22T08:37:22;97567.91;;;24.96;63.22
71938;BME280;59810;48.800;9.086;2023-06-22T08:39:54;97574.03;;;25.02;63.12
71938;BME280;59810;48.800;9.086;2023-06-22T08:42:19;97564.25;;;25.04;62.33
71938;BME280;59810;48.800;9.086;2023-06-22T08:44:44;97564.13;;;25.13;62.09
71938;BME280;59810;48.800;9.086;2023-06-22T08:47:10;97558.47;;;25.22;61.79
71938;BME280;59810;48.800;9.086;2023-06-22T08:49:35;97559.25;;;25.34;60.94
71938;BME280;59810;48.800;9.086;2023-06-22T08:52:01;97556.34;;;25.55;60.71
71938;BME280;59810;48.800;9.086;2023-06-22T08:54:26;97554.84;;;25.70;59.63
71938;BME280;59810;48.800;9.086;2023-06-22T08:56:51;97560.94;;;25.76;58.44
71938;BME280;59810;48.800;9.086;2023-06-22T08:59:17;97547.41;;;25.86;58.97
71938;BME280;59810;48.800;9.086;2023-06-22T09:01:42;97556.91;;;26.01;58.55
71938;BME280;59810;48.800;9.086;2023-06-22T09:04:11;97551.59;;;26.08;59.28
71938;BME280;59810;48.800;9.086;2023-06-22T09:06:37;97558.56;;;26.18;58.01
71938;BME280;59810;48.800;9.086;2023-06-22T09:09:06;97559.91;;;26.24;57.66
71938;BME280;59810;48.800;9.086;2023-06-22T09:11:31;97578.00;;;26.33;57.58
71938;BME280;59810;48.800;9.086;2023-06-22T09:13:57;97582.59;;;26.42;56.71
71938;BME280;59810;48.800;9.086;2023-06-22T09:16:22;97579.47;;;26.43;56.93
71938;BME280;59810;48.800;9.086;2023-06-22T09:18:48;97580.81;;;26.49;56.25
71938;BME280;59810;48.800;9.086;2023-06-22T09:21:13;97565.19;;;26.57;56.08
71938;BME280;59810;48.800;9.086;2023-06-22T09:23:39;97558.38;;;26.54;57.84
71938;BME280;59810;48.800;9.086;2023-06-22T09:26:04;97545.06;;;26.60;57.46
71938;BME280;59810;48.800;9.086;2023-06-22T09:28:30;97539.19;;;26.77;57.50
71938;BME280;59810;48.800;9.086;2023-06-22T09:30:55;97522.38;;;26.86;56.80
71938;BME280;59810;48.800;9.086;2023-06-22T09:33:24;97518.97;;;26.92;56.11
71938;BME280;59810;48.800;9.086;2023-06-22T09:35:49;97524.16;;;26.94;56.19
71938;BME280;59810;48.800;9.086;2023-06-22T09:38:16;97523.78;;;26.95;55.89
71938;BME280;59810;48.800;9.086;2023-06-22T09:40:41;97522.19;;;26.94;56.98
71938;BME280;59810;48.800;9.086;2023-06-22T09:43:06;97509.56;;;26.97;56.40
71938;BME280;59810;48.800;9.086;2023-06-22T09:45:34;97494.25;;;27.00;56.93
71938;BME280;59810;48.800;9.086;2023-06-22T09:48:02;97486.97;;;27.11;57.27
71938;BME280;59810;48.800;9.086;2023-06-22T09:50:27;97478.88;;;27.21;57.37
71938;BME280;59810;48.800;9.086;2023-06-22T09:52:53;97482.41;;;27.38;56.87
71938;BME280;59810;48.800;9.086;2023-06-22T09:55:23;97475.50;;;27.47;56.68
71938;BME280;59810;48.800;9.086;2023-06-22T09:57:48;97476.47;;;27.74;56.42
71938;BME280;59810;48.800;9.086;2023-06-22T10:00:15;97475.69;;;27.97;56.18
71938;BME280;59810;48.800;9.086;2023-06-22T10:02:42;97482.50;;;27.99;53.28
71938;BME280;59810;48.800;9.086;2023-06-22T10:05:08;97478.56;;;28.00;54.29
71938;BME280;59810;48.800;9.086;2023-06-22T10:07:33;97472.28;;;28.03;54.76
71938;BME280;59810;48.800;9.086;2023-06-22T10:09:59;97468.81;;;28.10;55.26
71938;BME280;59810;48.800;9.086;2023-06-22T10:12:26;97461.59;;;28.05;53.76
71938;BME280;59810;48.800;9.086;2023-06-22T10:14:52;97462.47;;;28.09;54.58
71938;BME280;59810;48.800;9.086;2023-06-22T10:17:22;97451.47;;;28.16;54.75
71938;BME280;59810;48.800;9.086;2023-06-22T10:19:49;97457.34;;;28.11;52.63
71938;BME280;59810;48.800;9.086;2023-06-22T10:22:14;97467.28;;;28.12;53.43
71938;BME280;59810;48.800;9.086;2023-06-22T10:24:40;97467.97;;;28.29;53.94
71938;BME280;59810;48.800;9.086;2023-06-22T10:27:13;97463.31;;;28.33;54.30
71938;BME280;59810;48.800;9.086;2023-06-22T10:29:43;97454.78;;;28.45;53.08
71938;BME280;59810;48.800;9.086;2023-06-22T10:32:09;97455.91;;;28.63;53.32
71938;BME280;59810;48.800;9.086;2023-06-22T10:34:39;97446.53;;;28.75;52.33
71938;BME280;59810;48.800;9.086;2023-06-22T10:37:06;97452.03;;;28.71;51.45
71938;BME280;59810;48.800;9.086;2023-06-22T10:39:32;97453.47;;;28.62;52.94
71938;BME280;59810;48.800;9.086;2023-06-22T10:41:57;97449.28;;;28.71;52.43
71938;BME280;59810;48.800;9.086;2023-06-22T10:44:22;97449.97;;;28.91;52.88
71938;BME280;59810;48.800;9.086;2023-06-22T10:46:48;97439.78;;;28.99;50.96
71938;BME280;59810;48.800;9.086;2023-06-22T10:49:15;97437.75;;;28.96;50.28
71938;BME280;59810;48.800;9.086;2023-06-22T10:51:40;97437.25;;;28.90;50.42
71938;BME280;59810;48.800;9.086;2023-06-22T10:54:06;97429.41;;;28.96;49.52
71938;BME280;59810;48.800;9.086;2023-06-22T10:56:32;97426.16;;;29.20;51.15
71938;BME280;59810;48.800;9.086;2023-06-22T10:58:59;97435.97;;;29.40;51.34
71938;BME280;59810;48.800;9.086;2023-06-22T11:01:24;97442.53;;;29.55;51.00
71938;BME280;59810;48.800;9.086;2023-06-22T11:03:55;97432.44;;;29.43;49.53
71938;BME280;59810;48.800;9.086;2023-06-22T11:06:21;97430.75;;;29.35;49.42
71938;BME280;59810;48.800;9.086;2023-06-22T11:08:46;97436.69;;;29.64;51.80
71938;BME280;59810;48.800;9.086;2023-06-22T11:11:19;97432.16;;;29.52;49.09
71938;BME280;59810;48.800;9.086;2023-06-22T11:13:44;97426.81;;;29.40;49.08
71938;BME280;59810;48.800;9.086;2023-06-22T11:16:10;97433.06;;;29.60;49.78
71938;BME280;59810;48.800;9.086;2023-06-22T11:18:36;97435.88;;;29.33;50.29
71938;BME280;59810;48.800;9.086;2023-06-22T11:21:01;97434.94;;;29.52;52.33
71938;BME280;59810;48.800;9.086;2023-06-22T11:23:27;97430.28;;;29.60;51.61
71938;BME280;59810;48.800;9.086;2023-06-22T11:25:53;97431.81;;;29.57;51.68
71938;BME280;59810;48.800;9.086;2023-06-22T11:28:19;97436.13;;;29.51;51.46
71938;BME280;59810;48.800;9.086;2023-06-22T11:30:46;97426.06;;;29.43;51.33
71938;BME280;59810;48.800;9.086;2023-06-22T11:33:12;97422.13;;;29.14;50.08
71938;BME280;59810;48.800;9.086;2023-06-22T11:35:37;97414.63;;;29.18;50.91
71938;BME280;59810;48.800;9.086;2023-06-22T11:38:03;97408.34;;;29.25;50.55
71938;BME280;59810;48.800;9.086;2023-06-22T11:40:29;97419.97;;;29.30;51.04
71938;BME280;59810;48.800;9.086;2023-06-22T11:42:54;97419.63;;;29.35;51.61
71938;BME280;59810;48.800;9.086;2023-06-22T11:45:20;97413.91;;;29.25;51.25
71938;BME280;59810;48.800;9.086;2023-06-22T11:47:48;97413.63;;;29.33;51.62
71938;BME280;59810;48.800;9.086;2023-06-22T11:50:13;97416.41;;;29.33;51.57
71938;BME280;59810;48.800;9.086;2023-06-22T11:52:45;97415.16;;;29.27;51.84
71938;BME280;59810;48.800;9.086;2023-06-22T11:55:10;97412.25;;;29.20;51.33
71938;BME280;59810;48.800;9.086;2023-06-22T11:57:36;97420.63;;;28.94;52.19
71938;BME280;59810;48.800;9.086;2023-06-22T12:00:03;97422.59;;;28.93;51.73
71938;BME280;59810;48.800;9.086;2023-06-22T12:02:43;97428.91;;;28.90;52.51
71938;BME280;59810;48.800;9.086;2023-06-22T12:05:10;97443.56;;;28.87;54.06
71938;BME280;59810;48.800;9.086;2023-06-22T12:07:35;97448.63;;;28.81;52.32
71938;BME280;59810;48.800;9.086;2023-06-22T12:10:03;97439.09;;;28.82;52.63
71938;BME280;59810;48.800;9.086;2023-06-22T12:12:29;97445.94;;;28.85;52.99
71938;BME280;59810;48.800;9.086;2023-06-22T12:14:57;97436.31;;;28.82;53.22
71938;BME280;59810;48.800;9.086;2023-06-22T12:17:22;97431.28;;;28.88;53.02
71938;BME280;59810;48.800;9.086;2023-06-22T12:19:47;97439.78;;;28.99;52.52
71938;BME280;59810;48.800;9.086;2023-06-22T12:22:13;97434.31;;;29.06;51.50
71938;BME280;59810;48.800;9.086;2023-06-22T12:24:38;97439.13;;;29.09;51.65
71938;BME280;59810;48.800;9.086;2023-06-22T12:27:06;97439.19;;;29.12;52.31
71938;BME280;59810;48.800;9.086;2023-06-22T12:29:33;97428.94;;;29.20;50.28
71938;BME280;59810;48.800;9.086;2023-06-22T12:32:01;97432.16;;;29.22;50.71
71938;BME280;59810;48.800;9.086;2023-06-22T12:34:27;97423.50;;;29.27;50.16
71938;BME280;59810;48.800;9.086;2023-06-22T12:36:52;97444.03;;;29.19;54.25
71938;BME280;59810;48.800;9.086;2023-06-22T12:39:20;97436.94;;;29.25;51.39
71938;BME280;59810;48.800;9.086;2023-06-22T12:41:45;97438.63;;;29.30;51.89
71938;BME280;59810;48.800;9.086;2023-06-22T12:44:13;97439.84;;;29.32;50.80
71938;BME280;59810;48.800;9.086;2023-06-22T12:46:38;97430.00;;;29.38;51.88
71938;BME280;59810;48.800;9.086;2023-06-22T12:49:06;97441.53;;;29.40;53.67
71938;BME280;59810;48.800;9.086;2023-06-22T12:51:31;97438.72;;;29.37;53.63
71938;BME280;59810;48.800;9.086;2023-06-22T12:53:57;97441.84;;;29.32;52.18
71938;BME280;59810;48.800;9.086;2023-06-22T12:56:25;97452.00;;;29.21;54.16
71938;BME280;59810;48.800;9.086;2023-06-22T12:58:50;97447.72;;;28.97;56.50
71938;BME280;59810;48.800;9.086;2023-06-22T13:01:15;97454.69;;;28.87;54.62